Stolt Ami — 3EAZ5 — position and weather

sailwx.info

Track history (hours):
 
Tides and Currents Weather Stations Pressure Air Temp Water Temp Dewpoint Dewpoint Depression Visibility Wind Speed Wind Dir Waves Ship Positions

Stolt Ami

Last reported at 2014-Oct-26 06:07 UTC. Time now 2014-Nov-22 21:30 UTC.
Position N 21°52' E 120°14'.
Warning: this ship's position is 27 days out of date.

Length 143 m; draft 9.6 m.

Type: Ship (hazmat cat C). MMSI: 371392514.

Date/timePositionNaut miles runAvg speedWind from/ knotsBaromVisibWave heightAir tempDewpointWater temp
2014-Oct-26 06:07N 21°52' E 120°14'1013.4
2014-Oct-26 05:24N 21°57' E 120°06'1412.2
2014-Oct-26 04:13N 22°10' E 119°59'913.5
2014-Oct-26 03:32N 22°19' E 119°58'1412.5
2014-Oct-26 02:27N 22°32' E 120°03'1112.8
2014-Oct-26 01:33N 22°38' E 120°13'4 1.3
2014-Oct-25 22:18N 22°36' E 120°18'0 0.0
2014-Oct-25 20:30N 22°36' E 120°18'0 0.0
2014-Oct-25 19:30N 22°36' E 120°18'0 0.0
2014-Oct-25 18:30N 22°36' E 120°18'0 0.0
2014-Oct-25 17:30N 22°36' E 120°18'0 0.0
2014-Oct-25 16:30N 22°36' E 120°18'0 0.0
2014-Oct-25 15:30N 22°36' E 120°18'0 0.0
2014-Oct-25 14:18N 22°36' E 120°18'0 0.0
2014-Oct-25 13:30N 22°36' E 120°18'0 0.0
2014-Oct-25 12:30N 22°36' E 120°18'0 0.0
2014-Oct-25 11:30N 22°36' E 120°18'0 0.0
2014-Oct-25 10:30N 22°36' E 120°18'1 0.4
2014-Oct-25 09:10N 22°36' E 120°18'0 0.0
2014-Oct-25 08:28N 22°36' E 120°18'0 0.0
2014-Oct-25 04:16N 22°36' E 120°18'0 0.0
2014-Oct-24 15:04N 22°36' E 120°18'0 0.0
2014-Oct-24 13:31N 22°36' E 120°18'0 0.0
2014-Oct-24 12:19N 22°36' E 120°18'0 0.0
2014-Oct-24 10:13N 22°36' E 120°18'0 0.0
2014-Oct-24 09:31N 22°36' E 120°18'2 0.3
2014-Oct-24 04:33N 22°37' E 120°17'9 9.4
2014-Oct-24 03:33N 22°35' E 120°07'1010.0
2014-Oct-24 02:33N 22°28' E 119°59'  
Track history (hours):
 
Tides and Currents Weather Stations Pressure Air Temp Water Temp Dewpoint Dewpoint Depression Visibility Wind Speed Wind Dir Waves Ship Positions

Stolt Ami

Last reported at 2014-Oct-26 06:07 UTC. Time now 2014-Nov-22 21:30 UTC.
Position N 21°52' E 120°14'.
Warning: this ship's position is 27 days out of date.

Length 143 m; draft 9.6 m.

Type: Ship (hazmat cat C). MMSI: 371392514.

Date/timePositionNaut miles runAvg speedWind from/ knotsBaromVisibWave heightAir tempDewpointWater temp
2014-Oct-26 06:07N 21°52' E 120°14'1013.4
2014-Oct-26 05:24N 21°57' E 120°06'1412.2
2014-Oct-26 04:13N 22°10' E 119°59'913.5
2014-Oct-26 03:32N 22°19' E 119°58'1412.5
2014-Oct-26 02:27N 22°32' E 120°03'1112.8
2014-Oct-26 01:33N 22°38' E 120°13'4 1.3
2014-Oct-25 22:18N 22°36' E 120°18'0 0.0
2014-Oct-25 20:30N 22°36' E 120°18'0 0.0
2014-Oct-25 19:30N 22°36' E 120°18'0 0.0
2014-Oct-25 18:30N 22°36' E 120°18'0 0.0
2014-Oct-25 17:30N 22°36' E 120°18'0 0.0
2014-Oct-25 16:30N 22°36' E 120°18'0 0.0
2014-Oct-25 15:30N 22°36' E 120°18'0 0.0
2014-Oct-25 14:18N 22°36' E 120°18'0 0.0
2014-Oct-25 13:30N 22°36' E 120°18'0 0.0
2014-Oct-25 12:30N 22°36' E 120°18'0 0.0
2014-Oct-25 11:30N 22°36' E 120°18'0 0.0
2014-Oct-25 10:30N 22°36' E 120°18'1 0.4
2014-Oct-25 09:10N 22°36' E 120°18'0 0.0
2014-Oct-25 08:28N 22°36' E 120°18'0 0.0
2014-Oct-25 04:16N 22°36' E 120°18'0 0.0
2014-Oct-24 15:04N 22°36' E 120°18'0 0.0
2014-Oct-24 13:31N 22°36' E 120°18'0 0.0
2014-Oct-24 12:19N 22°36' E 120°18'0 0.0
2014-Oct-24 10:13N 22°36' E 120°18'0 0.0
2014-Oct-24 09:31N 22°36' E 120°18'2 0.3
2014-Oct-24 04:33N 22°37' E 120°17'9 9.4
2014-Oct-24 03:33N 22°35' E 120°07'1010.0
2014-Oct-24 02:33N 22°28' E 119°59'  

Dump ship's entire track history